sensor_id;sensor_type;location;lat;lon;timestamp;pressure;altitude;pressure_sealevel;temperature;humidity
74724;BME280;63333;55.800;37.622;2022-09-09T00:02:20;100536.44;;;7.41;66.40
74724;BME280;63333;55.800;37.622;2022-09-09T00:05:18;100535.13;;;7.43;66.41
74724;BME280;63333;55.800;37.622;2022-09-09T00:07:52;100538.66;;;7.61;65.86
74724;BME280;63333;55.800;37.622;2022-09-09T00:10:29;100537.50;;;7.57;65.81
74724;BME280;63333;55.800;37.622;2022-09-09T00:15:26;100536.03;;;7.49;66.20
74724;BME280;63333;55.800;37.622;2022-09-09T00:20:47;100502.66;;;7.29;66.05
74724;BME280;63333;55.800;37.622;2022-09-09T00:23:28;100537.88;;;7.43;66.21
74724;BME280;63333;55.800;37.622;2022-09-09T00:29:05;100542.44;;;7.55;65.93
74724;BME280;63333;55.800;37.622;2022-09-09T00:31:35;100504.13;;;7.36;65.89
74724;BME280;63333;55.800;37.622;2022-09-09T00:34:19;100544.38;;;7.54;66.10
74724;BME280;63333;55.800;37.622;2022-09-09T00:36:49;100545.69;;;7.51;65.87
74724;BME280;63333;55.800;37.622;2022-09-09T00:39:32;100542.44;;;7.38;66.22
74724;BME280;63333;55.800;37.622;2022-09-09T00:42:33;100570.00;;;7.38;66.15
74724;BME280;63333;55.800;37.622;2022-09-09T00:47:46;100558.56;;;7.46;66.25
74724;BME280;63333;55.800;37.622;2022-09-09T00:50:42;100563.25;;;7.29;66.67
74724;BME280;63333;55.800;37.622;2022-09-09T00:58:30;100535.09;;;7.26;65.84
74724;BME280;63333;55.800;37.622;2022-09-09T01:01:04;100562.16;;;7.30;66.64
74724;BME280;63333;55.800;37.622;2022-09-09T01:03:46;100572.44;;;7.34;66.39
74724;BME280;63333;55.800;37.622;2022-09-09T01:09:04;100578.44;;;7.31;66.43
74724;BME280;63333;55.800;37.622;2022-09-09T01:14:08;100587.63;;;7.37;66.60
74724;BME280;63333;55.800;37.622;2022-09-09T01:16:36;100584.88;;;7.37;66.54
74724;BME280;63333;55.800;37.622;2022-09-09T01:19:02;100588.13;;;7.34;66.40
74724;BME280;63333;55.800;37.622;2022-09-09T01:21:51;100583.03;;;7.25;66.66
74724;BME280;63333;55.800;37.622;2022-09-09T01:24:36;100565.59;;;7.20;66.64
74724;BME280;63333;55.800;37.622;2022-09-09T01:27:05;100574.84;;;7.14;66.79
74724;BME280;63333;55.800;37.622;2022-09-09T01:29:32;100553.88;;;6.96;66.86
74724;BME280;63333;55.800;37.622;2022-09-09T01:32:35;100585.03;;;7.13;67.08
74724;BME280;63333;55.800;37.622;2022-09-09T01:34:48;100573.25;;;7.01;67.12
74724;BME280;63333;55.800;37.622;2022-09-09T01:37:15;100597.28;;;7.22;66.73
74724;BME280;63333;55.800;37.622;2022-09-09T01:39:43;100593.38;;;7.18;66.68
74724;BME280;63333;55.800;37.622;2022-09-09T01:42:12;100600.97;;;7.11;67.03
74724;BME280;63333;55.800;37.622;2022-09-09T01:44:39;100575.16;;;7.00;67.27
74724;BME280;63333;55.800;37.622;2022-09-09T01:47:04;100596.53;;;7.10;67.05
74724;BME280;63333;55.800;37.622;2022-09-09T01:49:31;100596.88;;;7.14;67.11
74724;BME280;63333;55.800;37.622;2022-09-09T01:51:58;100591.88;;;7.11;66.94
74724;BME280;63333;55.800;37.622;2022-09-09T01:54:26;100590.94;;;7.05;67.59
74724;BME280;63333;55.800;37.622;2022-09-09T01:57:01;100609.84;;;7.13;67.19
74724;BME280;63333;55.800;37.622;2022-09-09T02:02:20;100614.06;;;7.04;67.73
74724;BME280;63333;55.800;37.622;2022-09-09T02:04:50;100611.63;;;7.08;67.36
74724;BME280;63333;55.800;37.622;2022-09-09T02:07:39;100605.84;;;6.92;67.34
74724;BME280;63333;55.800;37.622;2022-09-09T02:10:19;100618.00;;;7.08;67.44
74724;BME280;63333;55.800;37.622;2022-09-09T02:12:48;100615.53;;;6.95;67.57
74724;BME280;63333;55.800;37.622;2022-09-09T02:15:35;100621.41;;;6.98;67.88
74724;BME280;63333;55.800;37.622;2022-09-09T02:18:07;100611.34;;;6.92;67.97
74724;BME280;63333;55.800;37.622;2022-09-09T02:20:36;100620.97;;;7.07;67.39
74724;BME280;63333;55.800;37.622;2022-09-09T02:23:04;100625.75;;;7.11;67.27
74724;BME280;63333;55.800;37.622;2022-09-09T02:25:30;100622.56;;;7.03;67.22
74724;BME280;63333;55.800;37.622;2022-09-09T02:27:56;100614.53;;;7.01;67.50
74724;BME280;63333;55.800;37.622;2022-09-09T02:30:24;100624.06;;;6.93;68.00
74724;BME280;63333;55.800;37.622;2022-09-09T02:32:52;100599.31;;;6.82;67.64
74724;BME280;63333;55.800;37.622;2022-09-09T02:35:23;100632.63;;;6.97;67.94
74724;BME280;63333;55.800;37.622;2022-09-09T02:37:51;100637.19;;;7.03;67.70
74724;BME280;63333;55.800;37.622;2022-09-09T02:40:18;100637.47;;;6.90;68.33
74724;BME280;63333;55.800;37.622;2022-09-09T02:42:47;100632.44;;;6.87;68.33
74724;BME280;63333;55.800;37.622;2022-09-09T02:45:17;100653.63;;;6.98;68.03
74724;BME280;63333;55.800;37.622;2022-09-09T02:50:34;100645.75;;;6.90;68.33
74724;BME280;63333;55.800;37.622;2022-09-09T02:53:32;100651.91;;;6.97;68.03
74724;BME280;63333;55.800;37.622;2022-09-09T02:56:15;100632.75;;;6.73;67.80
74724;BME280;63333;55.800;37.622;2022-09-09T02:58:41;100652.72;;;6.81;67.97
74724;BME280;63333;55.800;37.622;2022-09-09T03:01:07;100629.19;;;6.61;68.28
74724;BME280;63333;55.800;37.622;2022-09-09T03:03:34;100653.94;;;6.73;68.52
74724;BME280;63333;55.800;37.622;2022-09-09T03:06:00;100671.84;;;6.87;68.44
74724;BME280;63333;55.800;37.622;2022-09-09T03:08:26;100637.97;;;6.58;68.40
74724;BME280;63333;55.800;37.622;2022-09-09T03:10:54;100667.56;;;6.80;68.60
74724;BME280;63333;55.800;37.622;2022-09-09T03:13:20;100643.78;;;6.62;68.42
74724;BME280;63333;55.800;37.622;2022-09-09T03:15:47;100672.47;;;6.78;68.53
74724;BME280;63333;55.800;37.622;2022-09-09T03:18:13;100640.13;;;6.44;69.37
74724;BME280;63333;55.800;37.622;2022-09-09T03:20:39;100633.19;;;6.42;69.19
74724;BME280;63333;55.800;37.622;2022-09-09T03:23:07;100662.72;;;6.58;68.89
74724;BME280;63333;55.800;37.622;2022-09-09T03:25:32;100674.06;;;6.62;69.06
74724;BME280;63333;55.800;37.622;2022-09-09T03:27:59;100635.84;;;6.37;69.01
74724;BME280;63333;55.800;37.622;2022-09-09T03:30:26;100664.13;;;6.61;68.88
74724;BME280;63333;55.800;37.622;2022-09-09T03:32:53;100682.69;;;6.65;69.22
74724;BME280;63333;55.800;37.622;2022-09-09T03:35:18;100627.59;;;6.37;69.12
74724;BME280;63333;55.800;37.622;2022-09-09T03:37:45;100679.56;;;6.62;69.32
74724;BME280;63333;55.800;37.622;2022-09-09T03:40:11;100678.50;;;6.63;69.46
74724;BME280;63333;55.800;37.622;2022-09-09T03:42:37;100696.06;;;6.73;69.35
74724;BME280;63333;55.800;37.622;2022-09-09T03:45:04;100683.88;;;6.69;69.12
74724;BME280;63333;55.800;37.622;2022-09-09T03:47:30;100676.09;;;6.66;69.10
74724;BME280;63333;55.800;37.622;2022-09-09T03:49:55;100702.75;;;6.78;69.23
74724;BME280;63333;55.800;37.622;2022-09-09T03:52:21;100688.88;;;6.72;69.46
74724;BME280;63333;55.800;37.622;2022-09-09T03:54:50;100672.47;;;6.78;68.81
74724;BME280;63333;55.800;37.622;2022-09-09T03:57:16;100696.25;;;6.95;68.66
74724;BME280;63333;55.800;37.622;2022-09-09T03:59:42;100695.47;;;6.71;68.70
74724;BME280;63333;55.800;37.622;2022-09-09T04:02:08;100707.16;;;6.90;68.50
74724;BME280;63333;55.800;37.622;2022-09-09T04:04:34;100714.22;;;6.98;68.25
74724;BME280;63333;55.800;37.622;2022-09-09T04:07:00;100712.31;;;6.87;68.72
74724;BME280;63333;55.800;37.622;2022-09-09T04:09:25;100664.41;;;6.59;68.64
74724;BME280;63333;55.800;37.622;2022-09-09T04:11:50;100694.38;;;6.84;68.90
74724;BME280;63333;55.800;37.622;2022-09-09T04:14:16;100684.09;;;6.80;68.53
74724;BME280;63333;55.800;37.622;2022-09-09T04:16:42;100708.19;;;7.01;68.35
74724;BME280;63333;55.800;37.622;2022-09-09T04:19:10;100699.81;;;6.96;68.25
74724;BME280;63333;55.800;37.622;2022-09-09T04:21:38;100692.66;;;6.95;68.40
74724;BME280;63333;55.800;37.622;2022-09-09T04:24:06;100700.09;;;6.94;68.10
74724;BME280;63333;55.800;37.622;2022-09-09T04:26:32;100700.91;;;6.95;68.16
74724;BME280;63333;55.800;37.622;2022-09-09T04:28:58;100710.09;;;7.00;68.33
74724;BME280;63333;55.800;37.622;2022-09-09T04:31:23;100712.22;;;7.10;68.02
74724;BME280;63333;55.800;37.622;2022-09-09T04:33:49;100670.03;;;6.93;67.59
74724;BME280;63333;55.800;37.622;2022-09-09T04:36:16;100687.25;;;7.00;67.50
74724;BME280;63333;55.800;37.622;2022-09-09T04:38:41;100708.38;;;7.11;67.85
74724;BME280;63333;55.800;37.622;2022-09-09T04:41:07;100717.31;;;7.30;67.39
74724;BME280;63333;55.800;37.622;2022-09-09T04:43:33;100713.38;;;7.43;66.66
74724;BME280;63333;55.800;37.622;2022-09-09T04:45:59;100719.84;;;7.48;65.92
74724;BME280;63333;55.800;37.622;2022-09-09T04:48:25;100721.00;;;7.52;66.54
74724;BME280;63333;55.800;37.622;2022-09-09T04:50:58;100722.94;;;7.52;65.97
74724;BME280;63333;55.800;37.622;2022-09-09T04:53:24;100717.28;;;7.59;65.50
74724;BME280;63333;55.800;37.622;2022-09-09T04:55:51;100707.13;;;7.47;65.08
74724;BME280;63333;55.800;37.622;2022-09-09T04:58:16;100701.22;;;7.56;64.94
74724;BME280;63333;55.800;37.622;2022-09-09T05:00:42;100678.25;;;7.50;64.46
74724;BME280;63333;55.800;37.622;2022-09-09T05:03:08;100716.72;;;7.73;64.63
74724;BME280;63333;55.800;37.622;2022-09-09T05:05:37;100716.53;;;7.80;64.82
74724;BME280;63333;55.800;37.622;2022-09-09T05:08:07;100715.03;;;7.89;64.18
74724;BME280;63333;55.800;37.622;2022-09-09T05:10:37;100731.25;;;8.02;64.17
74724;BME280;63333;55.800;37.622;2022-09-09T05:13:02;100739.44;;;8.14;63.63
74724;BME280;63333;55.800;37.622;2022-09-09T05:15:29;100731.75;;;8.16;63.29
74724;BME280;63333;55.800;37.622;2022-09-09T05:17:59;100740.19;;;8.26;63.13
74724;BME280;63333;55.800;37.622;2022-09-09T05:20:25;100732.91;;;8.20;62.89
74724;BME280;63333;55.800;37.622;2022-09-09T05:22:54;100731.81;;;8.21;62.83
74724;BME280;63333;55.800;37.622;2022-09-09T05:25:20;100748.72;;;8.25;63.57
74724;BME280;63333;55.800;37.622;2022-09-09T05:27:47;100733.81;;;8.43;62.38
74724;BME280;63333;55.800;37.622;2022-09-09T05:30:12;100751.03;;;8.67;61.10
74724;BME280;63333;55.800;37.622;2022-09-09T05:32:38;100742.03;;;8.76;61.28
74724;BME280;63333;55.800;37.622;2022-09-09T05:35:04;100723.00;;;8.58;60.67
74724;BME280;63333;55.800;37.622;2022-09-09T05:37:30;100733.75;;;8.76;60.63
74724;BME280;63333;55.800;37.622;2022-09-09T05:39:56;100757.47;;;8.94;60.39
74724;BME280;63333;55.800;37.622;2022-09-09T05:42:21;100752.09;;;9.04;60.09
74724;BME280;63333;55.800;37.622;2022-09-09T05:44:47;100750.78;;;9.12;60.02
74724;BME280;63333;55.800;37.622;2022-09-09T05:47:12;100755.09;;;9.25;59.47
74724;BME280;63333;55.800;37.622;2022-09-09T05:49:38;100734.59;;;9.21;57.90
74724;BME280;63333;55.800;37.622;2022-09-09T05:52:03;100736.84;;;9.24;57.26
74724;BME280;63333;55.800;37.622;2022-09-09T05:54:29;100738.56;;;9.30;57.08
74724;BME280;63333;55.800;37.622;2022-09-09T05:56:55;100742.28;;;9.41;57.54
74724;BME280;63333;55.800;37.622;2022-09-09T05:59:20;100753.16;;;9.52;57.00
74724;BME280;63333;55.800;37.622;2022-09-09T06:01:48;100724.63;;;9.47;55.84
74724;BME280;63333;55.800;37.622;2022-09-09T06:04:13;100730.31;;;9.62;56.38
74724;BME280;63333;55.800;37.622;2022-09-09T06:06:39;100753.53;;;9.88;55.87
74724;BME280;63333;55.800;37.622;2022-09-09T06:09:08;100742.81;;;9.97;55.62
74724;BME280;63333;55.800;37.622;2022-09-09T06:11:38;100745.75;;;10.49;54.86
74724;BME280;63333;55.800;37.622;2022-09-09T06:14:05;100763.84;;;11.20;52.50
74724;BME280;63333;55.800;37.622;2022-09-09T06:16:31;100759.13;;;11.20;51.74
74724;BME280;63333;55.800;37.622;2022-09-09T06:18:58;100770.44;;;11.08;51.46
74724;BME280;63333;55.800;37.622;2022-09-09T06:21:26;100777.78;;;10.82;50.97
74724;BME280;63333;55.800;37.622;2022-09-09T06:23:52;100779.94;;;10.70;51.26
74724;BME280;63333;55.800;37.622;2022-09-09T06:26:23;100780.47;;;10.67;51.84
74724;BME280;63333;55.800;37.622;2022-09-09T06:28:51;100775.41;;;10.59;50.90
74724;BME280;63333;55.800;37.622;2022-09-09T06:31:19;100757.59;;;10.40;51.46
74724;BME280;63333;55.800;37.622;2022-09-09T06:33:50;100776.47;;;10.48;50.77
74724;BME280;63333;55.800;37.622;2022-09-09T06:36:21;100772.22;;;10.35;50.57
74724;BME280;63333;55.800;37.622;2022-09-09T06:38:48;100781.47;;;10.51;51.18
74724;BME280;63333;55.800;37.622;2022-09-09T06:41:15;100779.81;;;10.50;50.46
74724;BME280;63333;55.800;37.622;2022-09-09T06:43:41;100780.63;;;10.45;50.88
74724;BME280;63333;55.800;37.622;2022-09-09T06:46:10;100776.19;;;10.44;51.07
74724;BME280;63333;55.800;37.622;2022-09-09T06:48:36;100776.84;;;10.61;51.33
74724;BME280;63333;55.800;37.622;2022-09-09T06:51:05;100750.03;;;10.30;50.84
74724;BME280;63333;55.800;37.622;2022-09-09T06:53:33;100796.59;;;10.38;50.27
74724;BME280;63333;55.800;37.622;2022-09-09T06:58:38;100797.28;;;10.50;50.74
74724;BME280;63333;55.800;37.622;2022-09-09T07:01:08;100788.91;;;10.45;49.59
74724;BME280;63333;55.800;37.622;2022-09-09T07:03:34;100799.03;;;10.67;49.91
74724;BME280;63333;55.800;37.622;2022-09-09T07:06:00;100797.97;;;10.73;48.98
74724;BME280;63333;55.800;37.622;2022-09-09T07:08:26;100801.91;;;10.82;48.43
74724;BME280;63333;55.800;37.622;2022-09-09T07:10:52;100783.84;;;10.74;48.34
74724;BME280;63333;55.800;37.622;2022-09-09T07:13:24;100807.06;;;11.10;49.42
74724;BME280;63333;55.800;37.622;2022-09-09T07:15:51;100756.22;;;10.89;48.83
74724;BME280;63333;55.800;37.622;2022-09-09T07:18:16;100810.00;;;10.94;50.15
74724;BME280;63333;55.800;37.622;2022-09-09T07:20:42;100801.50;;;10.63;49.84
74724;BME280;63333;55.800;37.622;2022-09-09T07:23:07;100815.25;;;10.85;50.22
74724;BME280;63333;55.800;37.622;2022-09-09T07:25:33;100813.63;;;10.99;49.44
74724;BME280;63333;55.800;37.622;2022-09-09T07:27:58;100814.53;;;11.10;48.89
74724;BME280;63333;55.800;37.622;2022-09-09T07:30:24;100805.03;;;10.96;47.53
74724;BME280;63333;55.800;37.622;2022-09-09T07:32:51;100784.84;;;10.58;49.13
74724;BME280;63333;55.800;37.622;2022-09-09T07:35:17;100809.53;;;10.59;49.78
74724;BME280;63333;55.800;37.622;2022-09-09T07:37:43;100826.19;;;10.65;49.75
74724;BME280;63333;55.800;37.622;2022-09-09T07:40:09;100822.78;;;10.95;49.09
74724;BME280;63333;55.800;37.622;2022-09-09T07:42:35;100818.00;;;11.37;48.29
74724;BME280;63333;55.800;37.622;2022-09-09T07:45:03;100832.41;;;11.39;47.97
74724;BME280;63333;55.800;37.622;2022-09-09T07:47:29;100830.22;;;11.47;48.79
74724;BME280;63333;55.800;37.622;2022-09-09T07:49:54;100840.19;;;11.37;47.51
74724;BME280;63333;55.800;37.622;2022-09-09T07:52:20;100822.34;;;11.18;47.88
74724;BME280;63333;55.800;37.622;2022-09-09T07:54:46;100840.06;;;11.17;49.03
74724;BME280;63333;55.800;37.622;2022-09-09T07:57:12;100843.94;;;11.11;48.34
74724;BME280;63333;55.800;37.622;2022-09-09T07:59:37;100817.25;;;10.95;48.89
74724;BME280;63333;55.800;37.622;2022-09-09T08:02:04;100786.38;;;10.81;47.81
74724;BME280;63333;55.800;37.622;2022-09-09T08:04:29;100844.22;;;11.09;47.01
74724;BME280;63333;55.800;37.622;2022-09-09T08:06:57;100851.63;;;11.04;46.77
74724;BME280;63333;55.800;37.622;2022-09-09T08:09:23;100781.03;;;10.69;46.61
74724;BME280;63333;55.800;37.622;2022-09-09T08:11:52;100849.00;;;11.29;45.97
74724;BME280;63333;55.800;37.622;2022-09-09T08:14:18;100806.47;;;11.08;46.03
74724;BME280;63333;55.800;37.622;2022-09-09T08:16:46;100814.75;;;11.03;45.64
74724;BME280;63333;55.800;37.622;2022-09-09T08:19:12;100809.44;;;10.92;45.16
74724;BME280;63333;55.800;37.622;2022-09-09T08:21:41;100801.09;;;10.86;45.62
74724;BME280;63333;55.800;37.622;2022-09-09T08:24:08;100843.50;;;11.39;45.70
74724;BME280;63333;55.800;37.622;2022-09-09T08:26:40;100846.84;;;11.41;45.84
74724;BME280;63333;55.800;37.622;2022-09-09T08:29:09;100825.22;;;11.44;45.92
74724;BME280;63333;55.800;37.622;2022-09-09T08:31:40;100834.06;;;11.30;46.51
74724;BME280;63333;55.800;37.622;2022-09-09T08:34:07;100819.19;;;11.04;47.27
74724;BME280;63333;55.800;37.622;2022-09-09T08:36:44;100819.41;;;10.87;47.65
74724;BME280;63333;55.800;37.622;2022-09-09T08:39:15;100829.97;;;10.96;49.04
74724;BME280;63333;55.800;37.622;2022-09-09T08:42:00;100841.63;;;11.50;47.51
74724;BME280;63333;55.800;37.622;2022-09-09T08:52:31;100834.84;;;12.95;44.88
74724;BME280;63333;55.800;37.622;2022-09-09T08:55:11;100847.00;;;14.34;40.85
74724;BME280;63333;55.800;37.622;2022-09-09T08:57:40;100854.91;;;14.22;40.72
74724;BME280;63333;55.800;37.622;2022-09-09T09:00:09;100833.22;;;14.53;40.66
74724;BME280;63333;55.800;37.622;2022-09-09T09:02:58;100826.13;;;14.66;38.04
74724;BME280;63333;55.800;37.622;2022-09-09T09:05:36;100819.44;;;13.93;37.96
74724;BME280;63333;55.800;37.622;2022-09-09T09:08:26;100857.66;;;13.83;39.04
74724;BME280;63333;55.800;37.622;2022-09-09T09:10:55;100854.47;;;13.40;39.21
74724;BME280;63333;55.800;37.622;2022-09-09T09:16:26;100850.97;;;12.88;41.56
74724;BME280;63333;55.800;37.622;2022-09-09T09:18:54;100834.06;;;12.44;42.32
74724;BME280;63333;55.800;37.622;2022-09-09T09:21:43;100860.47;;;12.52;43.19
74724;BME280;63333;55.800;37.622;2022-09-09T09:24:20;100855.72;;;12.52;43.67
74724;BME280;63333;55.800;37.622;2022-09-09T09:26:48;100828.78;;;12.37;43.67
74724;BME280;63333;55.800;37.622;2022-09-09T09:29:16;100869.09;;;12.45;43.21
74724;BME280;63333;55.800;37.622;2022-09-09T09:31:53;100861.56;;;12.30;43.57
74724;BME280;63333;55.800;37.622;2022-09-09T09:34:20;100854.88;;;12.21;42.50
74724;BME280;63333;55.800;37.622;2022-09-09T09:36:58;100864.59;;;12.18;42.16
74724;BME280;63333;55.800;37.622;2022-09-09T09:39:29;100862.38;;;12.15;42.20
74724;BME280;63333;55.800;37.622;2022-09-09T09:41:55;100857.09;;;12.14;43.13
74724;BME280;63333;55.800;37.622;2022-09-09T09:44:32;100843.75;;;12.06;43.48
74724;BME280;63333;55.800;37.622;2022-09-09T09:47:20;100843.44;;;11.87;42.90
74724;BME280;63333;55.800;37.622;2022-09-09T09:49:53;100852.03;;;11.85;43.51
74724;BME280;63333;55.800;37.622;2022-09-09T09:52:22;100858.97;;;11.88;43.79
74724;BME280;63333;55.800;37.622;2022-09-09T09:54:52;100823.59;;;11.58;45.39
74724;BME280;63333;55.800;37.622;2022-09-09T09:57:24;100769.13;;;11.21;46.32
74724;BME280;63333;55.800;37.622;2022-09-09T10:00:13;100794.94;;;11.32;45.39
74724;BME280;63333;55.800;37.622;2022-09-09T10:02:41;100792.97;;;11.27;44.89
74724;BME280;63333;55.800;37.622;2022-09-09T10:05:23;100859.97;;;11.61;45.31
74724;BME280;63333;55.800;37.622;2022-09-09T10:08:15;100854.94;;;11.53;46.33
74724;BME280;63333;55.800;37.622;2022-09-09T10:11:23;100865.25;;;11.68;44.61
74724;BME280;63333;55.800;37.622;2022-09-09T10:19:30;100857.63;;;11.96;42.47
74724;BME280;63333;55.800;37.622;2022-09-09T10:27:48;100849.34;;;12.21;41.70
74724;BME280;63333;55.800;37.622;2022-09-09T10:33:10;100853.22;;;12.25;42.55
74724;BME280;63333;55.800;37.622;2022-09-09T10:36:01;100833.78;;;12.15;43.17
74724;BME280;63333;55.800;37.622;2022-09-09T10:39:18;100836.28;;;12.16;43.37
74724;BME280;63333;55.800;37.622;2022-09-09T10:42:04;100872.38;;;12.27;42.99
74724;BME280;63333;55.800;37.622;2022-09-09T10:47:39;100860.13;;;11.97;42.23
74724;BME280;63333;55.800;37.622;2022-09-09T10:50:19;100831.22;;;11.88;41.84
74724;BME280;63333;55.800;37.622;2022-09-09T10:55:43;100859.59;;;12.10;42.14
74724;BME280;63333;55.800;37.622;2022-09-09T10:58:17;100858.75;;;12.10;41.98
74724;BME280;63333;55.800;37.622;2022-09-09T11:00:47;100876.81;;;12.23;42.26
74724;BME280;63333;55.800;37.622;2022-09-09T11:03:23;100863.75;;;12.13;43.03
74724;BME280;63333;55.800;37.622;2022-09-09T11:05:54;100850.69;;;12.03;42.43
74724;BME280;63333;55.800;37.622;2022-09-09T11:08:25;100858.19;;;12.03;42.33
74724;BME280;63333;55.800;37.622;2022-09-09T11:16:16;100865.69;;;12.07;41.95
74724;BME280;63333;55.800;37.622;2022-09-09T11:18:46;100838.72;;;11.92;42.05
74724;BME280;63333;55.800;37.622;2022-09-09T11:21:21;100809.47;;;11.70;42.03
74724;BME280;63333;55.800;37.622;2022-09-09T11:23:59;100839.56;;;11.93;41.86
74724;BME280;63333;55.800;37.622;2022-09-09T11:26:40;100867.94;;;12.10;42.33
74724;BME280;63333;55.800;37.622;2022-09-09T11:32:12;100862.38;;;12.15;41.99
74724;BME280;63333;55.800;37.622;2022-09-09T11:35:02;100827.09;;;12.06;41.54
74724;BME280;63333;55.800;37.622;2022-09-09T11:40:26;100830.41;;;12.08;41.35
74724;BME280;63333;55.800;37.622;2022-09-09T11:45:36;100868.75;;;12.06;42.52
74724;BME280;63333;55.800;37.622;2022-09-09T11:48:03;100861.22;;;11.96;43.47
74724;BME280;63333;55.800;37.622;2022-09-09T11:50:32;100875.13;;;12.06;43.14
74724;BME280;63333;55.800;37.622;2022-09-09T11:53:18;100866.22;;;11.99;43.58
74724;BME280;63333;55.800;37.622;2022-09-09T11:55:46;100870.13;;;12.03;43.83
74724;BME280;63333;55.800;37.622;2022-09-09T12:00:40;100835.59;;;11.79;44.14
74724;BME280;63333;55.800;37.622;2022-09-09T12:03:45;100857.59;;;11.90;43.40
74724;BME280;63333;55.800;37.622;2022-09-09T12:06:19;100861.75;;;11.83;43.51
74724;BME280;63333;55.800;37.622;2022-09-09T12:09:05;100846.13;;;11.66;44.35
74724;BME280;63333;55.800;37.622;2022-09-09T12:11:33;100831.97;;;11.68;44.79
74724;BME280;63333;55.800;37.622;2022-09-09T12:14:00;100817.56;;;11.71;45.49
74724;BME280;63333;55.800;37.622;2022-09-09T12:16:36;100862.09;;;12.12;44.67
74724;BME280;63333;55.800;37.622;2022-09-09T12:19:19;100859.63;;;12.26;42.79
74724;BME280;63333;55.800;37.622;2022-09-09T12:22:16;100834.03;;;12.13;43.38
74724;BME280;63333;55.800;37.622;2022-09-09T12:25:16;100853.50;;;12.34;42.86
74724;BME280;63333;55.800;37.622;2022-09-09T12:28:27;100864.91;;;12.42;43.35
74724;BME280;63333;55.800;37.622;2022-09-09T12:33:35;100859.31;;;12.17;43.61
74724;BME280;63333;55.800;37.622;2022-09-09T12:36:03;100845.97;;;12.19;44.03
74724;BME280;63333;55.800;37.622;2022-09-09T12:38:36;100854.06;;;12.26;43.07
74724;BME280;63333;55.800;37.622;2022-09-09T12:41:02;100858.22;;;12.28;43.54
74724;BME280;63333;55.800;37.622;2022-09-09T12:43:28;100809.84;;;11.99;43.67
74724;BME280;63333;55.800;37.622;2022-09-09T12:46:02;100859.34;;;12.27;43.70
74724;BME280;63333;55.800;37.622;2022-09-09T12:48:41;100817.94;;;12.05;41.02
74724;BME280;63333;55.800;37.622;2022-09-09T12:51:30;100817.94;;;12.15;41.51
74724;BME280;63333;55.800;37.622;2022-09-09T12:53:58;100847.69;;;12.30;41.67
74724;BME280;63333;55.800;37.622;2022-09-09T12:56:27;100831.25;;;12.08;42.70
74724;BME280;63333;55.800;37.622;2022-09-09T12:58:56;100847.09;;;12.28;42.13
74724;BME280;63333;55.800;37.622;2022-09-09T13:01:32;100849.59;;;12.35;42.20
74724;BME280;63333;55.800;37.622;2022-09-09T13:03:59;100847.69;;;12.35;42.87
74724;BME280;63333;55.800;37.622;2022-09-09T13:06:27;100846.56;;;12.36;42.50
74724;BME280;63333;55.800;37.622;2022-09-09T13:08:55;100824.06;;;12.17;42.05
74724;BME280;63333;55.800;37.622;2022-09-09T13:11:44;100833.50;;;12.16;42.74
74724;BME280;63333;55.800;37.622;2022-09-09T13:14:32;100827.66;;;12.13;42.87
74724;BME280;63333;55.800;37.622;2022-09-09T13:17:02;100836.56;;;12.15;42.81
74724;BME280;63333;55.800;37.622;2022-09-09T13:19:35;100851.00;;;12.17;43.04
74724;BME280;63333;55.800;37.622;2022-09-09T13:22:29;100815.69;;;11.92;43.88
74724;BME280;63333;55.800;37.622;2022-09-09T13:25:03;100849.03;;;12.17;43.66
74724;BME280;63333;55.800;37.622;2022-09-09T13:27:34;100827.34;;;12.04;43.71
74724;BME280;63333;55.800;37.622;2022-09-09T13:30:00;100822.63;;;12.05;43.65
74724;BME280;63333;55.800;37.622;2022-09-09T13:32:27;100846.81;;;12.25;43.19
74724;BME280;63333;55.800;37.622;2022-09-09T13:35:01;100840.41;;;11.99;44.31
74724;BME280;63333;55.800;37.622;2022-09-09T13:37:35;100829.31;;;12.04;43.53
74724;BME280;63333;55.800;37.622;2022-09-09T13:40:03;100847.66;;;12.20;44.10
74724;BME280;63333;55.800;37.622;2022-09-09T13:42:32;100835.69;;;12.14;43.73
74724;BME280;63333;55.800;37.622;2022-09-09T13:45:00;100849.88;;;12.23;43.12
74724;BME280;63333;55.800;37.622;2022-09-09T13:47:32;100831.84;;;12.10;43.65
74724;BME280;63333;55.800;37.622;2022-09-09T13:50:18;100831.28;;;12.39;43.30
74724;BME280;63333;55.800;37.622;2022-09-09T13:52:44;100841.84;;;12.47;43.23
74724;BME280;63333;55.800;37.622;2022-09-09T13:55:10;100822.38;;;12.16;44.59
74724;BME280;63333;55.800;37.622;2022-09-09T13:57:36;100854.91;;;12.41;43.87
74724;BME280;63333;55.800;37.622;2022-09-09T14:00:02;100846.84;;;12.55;41.89
74724;BME280;63333;55.800;37.622;2022-09-09T14:02:27;100842.69;;;12.48;41.54
74724;BME280;63333;55.800;37.622;2022-09-09T14:04:53;100804.63;;;12.28;42.32
74724;BME280;63333;55.800;37.622;2022-09-09T14:07:21;100828.50;;;12.39;40.94
74724;BME280;63333;55.800;37.622;2022-09-09T14:09:46;100846.56;;;12.21;42.50
74724;BME280;63333;55.800;37.622;2022-09-09T14:12:17;100817.38;;;12.24;42.87
74724;BME280;63333;55.800;37.622;2022-09-09T14:14:43;100848.22;;;12.48;43.07
74724;BME280;63333;55.800;37.622;2022-09-09T14:17:09;100833.22;;;12.38;43.81
74724;BME280;63333;55.800;37.622;2022-09-09T14:19:37;100820.44;;;12.42;42.51
74724;BME280;63333;55.800;37.622;2022-09-09T14:22:03;100836.84;;;12.44;42.86
74724;BME280;63333;55.800;37.622;2022-09-09T14:24:28;100816.00;;;12.31;42.76
74724;BME280;63333;55.800;37.622;2022-09-09T14:26:54;100817.94;;;12.05;44.76